Overview Statistics Trail Chart Weather Telemetry Raw packets
 

This is the latest recevied weather packets stored in our database for station/object TA2LKM-11. If no packets are shown the sender has not sent any weather packets the latest 10 day(s).

<< 38 39 40 41 42 43 44 >>
Time Temp. Humidity Pressure Rain* Wind** Luminosity Snow
1788075122 32.78° C 42% 1016.8 hPa - - - -
1788074221 32.22° C 43% 1016.9 hPa - - - -
1788073321 32.22° C 42% 1016.7 hPa - - - -
1788072420 33.33° C 40% 1016.8 hPa - - - -
1788071519 36.67° C 36% 1017.3 hPa - - - -
1788070618 37.78° C 34% 1017.3 hPa - - - -
1788069718 36.11° C 36% 1017.3 hPa - - - -
1788068817 38.33° C 33% 1017.2 hPa - - - -
1788067916 40° C 32% 1017.1 hPa - - - -
1788067016 38.89° C 33% 1017.1 hPa - - - -
1788066115 36.67° C 37% 1017.1 hPa - - - -
1788065214 35.56° C 40% 1017.1 hPa - - - -
1788064313 32.22° C 45% 1016.7 hPa - - - -
1788063412 27.78° C 55% 1016.5 hPa - - - -
1788062511 26.67° C 57% 1016.3 hPa - - - -
1788061624 22.22° C 67% 1015.8 hPa - - - -
1788060723 21.67° C 67% 1015.5 hPa - - - -
1788059834 20° C 70% 1014.8 hPa - - - -
1788058923 20° C 70% 1014.8 hPa - - - -
1788058022 21.11° C 67% 1015.1 hPa - - - -
1788057121 21.67° C 66% 1015.3 hPa - - - -
1788056220 21.67° C 63% 1015.6 hPa - - - -
1788055320 21.67° C 59% 1015.6 hPa - - - -
1788054419 21.11° C 59% 1015.3 hPa - - - -
1788053519 23.33° C 56% 1015.7 hPa - - - -

* Rain since midnight (hover to see other rain measurements)
** Current wind speed in m/s (hover to see current wind gust speed)